Time;durP1;ratioP1;P1;durP2;ratioP2;P2;SDS_P1;SDS_P2;PMS_P1;PMS_P2;Temp;Humidity;BMP_temperature;BMP_pressure;BME280_temperature;BME280_humidity;BME280_pressure;Samples;Min_cycle;Max_cycle;Signal;HPM_P1;HPM_P2
2022/09/07 00:00:52;;;;;;;3.97;2.00;;;;;;;;;;5324965;28;20026;-67
2022/09/07 00:03:23;;;;;;;3.85;2.40;;;;;;;;;;5326001;28;20276;-68
2022/09/07 00:05:54;;;;;;;3.30;1.93;;;;;;;;;;5326099;28;20461;-68
2022/09/07 00:08:26;;;;;;;4.05;1.67;;;;;;;;;;5325164;28;20402;-69
2022/09/07 00:10:59;;;;;;;3.60;1.60;;;;;;;;;;5326247;28;20023;-68
2022/09/07 00:13:31;;;;;;;6.30;1.70;;;;;;;;;;5324987;28;20028;-68
2022/09/07 00:16:04;;;;;;;2.60;1.38;;;;;;;;;;5326037;28;20095;-68
2022/09/07 00:18:35;;;;;;;2.90;1.35;;;;;;;;;;5325674;28;20065;-69
2022/09/07 00:21:08;;;;;;;2.40;1.50;;;;;;;;;;5325500;28;20015;-68
2022/09/07 00:23:40;;;;;;;3.55;2.17;;;;;;;;;;5325677;28;20051;-68
2022/09/07 00:26:15;;;;;;;3.30;1.75;;;;;;;;;;5325869;28;20129;-69
2022/09/07 00:28:46;;;;;;;4.75;2.20;;;;;;;;;;5324476;28;20039;-68
2022/09/07 00:31:21;;;;;;;4.05;2.10;;;;;;;;;;5325747;28;20204;-69
2022/09/07 00:33:53;;;;;;;4.53;2.50;;;;;;;;;;5325236;28;20019;-68
2022/09/07 00:36:24;;;;;;;5.45;2.90;;;;;;;;;;5324655;28;20015;-69
2022/09/07 00:38:56;;;;;;;4.93;3.17;;;;;;;;;;5325297;28;20015;-69
2022/09/07 00:41:27;;;;;;;6.50;3.40;;;;;;;;;;5324245;28;20015;-69
2022/09/07 00:44:18;;;;;;;4.93;3.10;;;;;;;;;;5325400;28;20130;-68
2022/09/07 00:46:49;;;;;;;4.95;3.38;;;;;;;;;;5324573;28;20111;-68
2022/09/07 00:49:21;;;;;;;5.25;3.50;;;;;;;;;;5324530;28;20115;-69
2022/09/07 00:51:57;;;;;;;6.43;3.45;;;;;;;;;;5324687;28;20326;-68
2022/09/07 00:54:35;;;;;;;4.25;3.17;;;;;;;;;;5324898;28;20062;-69
2022/09/07 00:57:06;;;;;;;6.13;3.92;;;;;;;;;;5324523;28;20102;-69
2022/09/07 00:59:42;;;;;;;4.65;3.30;;;;;;;;;;5324521;28;20098;-69
2022/09/07 01:02:15;;;;;;;3.97;2.90;;;;;;;;;;5324983;28;20031;-69
2022/09/07 01:04:48;;;;;;;3.38;2.63;;;;;;;;;;5323006;28;20051;-68
2022/09/07 01:07:19;;;;;;;4.32;2.95;;;;;;;;;;5324730;28;20028;-68
2022/09/07 01:09:51;;;;;;;5.50;3.60;;;;;;;;;;5323496;28;20477;-70
2022/09/07 01:12:22;;;;;;;4.38;2.65;;;;;;;;;;5324771;28;20694;-70
2022/09/07 01:14:53;;;;;;;4.13;2.88;;;;;;;;;;5324382;28;20450;-69
2022/09/07 01:17:33;;;;;;;4.82;2.80;;;;;;;;;;5324046;28;20289;-70
2022/09/07 01:20:23;;;;;;;3.83;3.20;;;;;;;;;;5324809;28;20023;-70
2022/09/07 01:23:09;;;;;;;5.85;2.45;;;;;;;;;;5324356;28;20409;-70
2022/09/07 01:25:47;;;;;;;4.68;2.10;;;;;;;;;;5322951;28;20119;-70
2022/09/07 01:28:38;;;;;;;2.83;2.25;;;;;;;;;;5324691;28;20486;-70
2022/09/07 01:31:12;;;;;;;4.53;2.50;;;;;;;;;;5323258;28;20040;-70
2022/09/07 01:33:54;;;;;;;7.28;2.40;;;;;;;;;;5323977;28;20486;-70
2022/09/07 01:36:32;;;;;;;3.33;2.47;;;;;;;;;;5323917;28;20042;-70
2022/09/07 01:39:03;;;;;;;2.72;1.88;;;;;;;;;;5323651;28;20020;-70
2022/09/07 01:41:58;;;;;;;3.20;2.00;;;;;;;;;;5323601;28;20026;-70
2022/09/07 01:44:41;;;;;;;4.55;2.40;;;;;;;;;;5317749;28;20465;-69
2022/09/07 01:47:24;;;;;;;3.50;2.17;;;;;;;;;;5324163;28;20031;-68
2022/09/07 01:50:07;;;;;;;3.88;2.03;;;;;;;;;;5323763;28;20014;-68
2022/09/07 01:52:41;;;;;;;3.08;2.30;;;;;;;;;;5323029;28;20024;-68
2022/09/07 01:55:16;;;;;;;4.85;2.10;;;;;;;;;;5324043;28;20019;-68
2022/09/07 01:57:55;;;;;;;3.80;2.38;;;;;;;;;;5323384;28;20023;-68
2022/09/07 02:00:26;;;;;;;3.83;1.90;;;;;;;;;;5322585;28;20438;-68
2022/09/07 02:03:06;;;;;;;5.03;2.90;;;;;;;;;;5323903;28;20120;-68
2022/09/07 02:05:59;;;;;;;4.65;2.42;;;;;;;;;;5323132;28;20095;-68
2022/09/07 02:08:38;;;;;;;5.85;3.50;;;;;;;;;;5323253;28;20028;-68
2022/09/07 02:11:11;;;;;;;3.55;3.00;;;;;;;;;;5324136;28;20038;-69
2022/09/07 02:13:47;;;;;;;3.95;3.17;;;;;;;;;;5322473;28;20015;-68
2022/09/07 02:16:21;;;;;;;4.13;2.53;;;;;;;;;;5323007;28;20015;-68
2022/09/07 02:18:54;;;;;;;3.25;2.38;;;;;;;;;;5323113;28;20097;-68
2022/09/07 02:21:30;;;;;;;3.75;2.53;;;;;;;;;;5322492;28;20107;-69
2022/09/07 02:24:04;;;;;;;6.65;2.45;;;;;;;;;;5323548;28;20019;-68
2022/09/07 02:26:37;;;;;;;4.72;2.80;;;;;;;;;;5323081;28;20034;-69
2022/09/07 02:29:08;;;;;;;2.90;2.60;;;;;;;;;;5322798;28;20504;-68
2022/09/07 02:31:40;;;;;;;2.70;2.17;;;;;;;;;;5322879;28;20055;-69
2022/09/07 02:34:12;;;;;;;3.83;2.47;;;;;;;;;;5322839;28;20016;-68
2022/09/07 02:36:44;;;;;;;2.63;2.20;;;;;;;;;;5323153;28;20031;-68
2022/09/07 02:39:15;;;;;;;4.05;2.70;;;;;;;;;;5323532;28;20059;-68
2022/09/07 02:41:47;;;;;;;4.20;2.67;;;;;;;;;;5322081;28;20447;-68
2022/09/07 02:44:19;;;;;;;3.20;2.90;;;;;;;;;;5323200;28;20040;-68
2022/09/07 02:47:08;;;;;;;4.25;2.20;;;;;;;;;;5322916;28;20107;-68
2022/09/07 02:49:57;;;;;;;4.03;2.85;;;;;;;;;;5322101;28;20508;-68
2022/09/07 02:52:28;;;;;;;3.95;2.60;;;;;;;;;;5322699;28;20031;-68
2022/09/07 02:55:23;;;;;;;3.80;2.80;;;;;;;;;;5322739;28;20027;-68
2022/09/07 02:58:13;;;;;;;3.38;3.08;;;;;;;;;;5317176;28;20269;-68
2022/09/07 03:00:55;;;;;;;4.07;3.00;;;;;;;;;;5322838;28;20374;-68
2022/09/07 03:03:36;;;;;;;3.85;3.47;;;;;;;;;;5321904;28;20056;-68
2022/09/07 03:06:11;;;;;;;4.03;3.33;;;;;;;;;;5323344;28;20034;-68
2022/09/07 03:08:45;;;;;;;3.40;3.10;;;;;;;;;;5322689;28;20007;-68
2022/09/07 03:11:17;;;;;;;6.38;3.45;;;;;;;;;;5322378;28;20384;-68
2022/09/07 03:13:48;;;;;;;4.15;3.67;;;;;;;;;;5322692;28;20047;-68
2022/09/07 03:16:19;;;;;;;5.25;3.85;;;;;;;;;;5322794;28;20015;-68
2022/09/07 03:18:50;;;;;;;3.95;3.55;;;;;;;;;;5322521;28;20261;-68
2022/09/07 03:21:21;;;;;;;3.43;3.13;;;;;;;;;;5323153;28;20380;-68
2022/09/07 03:23:53;;;;;;;3.70;3.40;;;;;;;;;;5321635;28;20265;-69
2022/09/07 03:26:25;;;;;;;3.65;3.28;;;;;;;;;;5322983;28;20028;-68
2022/09/07 03:28:56;;;;;;;6.38;3.45;;;;;;;;;;5326135;28;20111;-68
2022/09/07 03:31:27;;;;;;;4.57;4.13;;;;;;;;;;5325656;28;20045;-69
2022/09/07 03:33:58;;;;;;;3.80;3.33;;;;;;;;;;5326940;28;20020;-68
2022/09/07 03:36:30;;;;;;;3.80;3.50;;;;;;;;;;5326424;28;20281;-68
2022/09/07 03:39:01;;;;;;;3.83;3.00;;;;;;;;;;5326165;28;20270;-69
2022/09/07 03:41:33;;;;;;;4.00;3.33;;;;;;;;;;5326235;28;20073;-68
2022/09/07 03:44:05;;;;;;;3.35;3.05;;;;;;;;;;5326649;28;20039;-68
2022/09/07 03:46:36;;;;;;;3.72;3.42;;;;;;;;;;5325154;28;20327;-68
2022/09/07 03:49:07;;;;;;;4.35;3.95;;;;;;;;;;5326859;28;20015;-68
2022/09/07 03:51:38;;;;;;;4.22;3.63;;;;;;;;;;5325143;28;20094;-68
2022/09/07 03:54:10;;;;;;;4.30;3.47;;;;;;;;;;5326607;28;20419;-68
2022/09/07 03:56:41;;;;;;;4.65;3.13;;;;;;;;;;5325916;28;20269;-68
2022/09/07 03:59:12;;;;;;;3.80;3.33;;;;;;;;;;5325668;28;20274;-68
2022/09/07 04:01:43;;;;;;;5.32;3.17;;;;;;;;;;5325919;28;20292;-68
2022/09/07 04:04:14;;;;;;;3.50;3.20;;;;;;;;;;5326095;28;20016;-68
2022/09/07 04:06:45;;;;;;;4.03;3.72;;;;;;;;;;5324741;28;20195;-68
2022/09/07 04:09:17;;;;;;;5.72;3.50;;;;;;;;;;5326203;28;20140;-68
2022/09/07 04:11:48;;;;;;;6.07;3.97;;;;;;;;;;5325450;28;20080;-68
2022/09/07 04:14:19;;;;;;;4.30;3.63;;;;;;;;;;5325433;28;20265;-68
2022/09/07 04:16:50;;;;;;;4.07;3.70;;;;;;;;;;5325641;28;20318;-68
2022/09/07 04:19:21;;;;;;;4.90;3.97;;;;;;;;;;5325341;28;20019;-68
2022/09/07 04:21:53;;;;;;;4.50;4.05;;;;;;;;;;5325180;28;20022;-68
2022/09/07 04:24:24;;;;;;;4.30;3.90;;;;;;;;;;5325795;28;20100;-69
2022/09/07 04:26:55;;;;;;;4.47;3.85;;;;;;;;;;5324626;28;20288;-68
2022/09/07 04:29:26;;;;;;;4.20;3.72;;;;;;;;;;5325119;28;20348;-68
2022/09/07 04:31:57;;;;;;;5.03;3.70;;;;;;;;;;5325705;28;20410;-68
2022/09/07 04:34:28;;;;;;;4.72;4.25;;;;;;;;;;5324131;28;20729;-69
2022/09/07 04:37:00;;;;;;;5.87;4.20;;;;;;;;;;5325616;28;20098;-69
2022/09/07 04:39:31;;;;;;;5.45;4.35;;;;;;;;;;5324046;28;20269;-68
2022/09/07 04:42:02;;;;;;;7.30;4.63;;;;;;;;;;5324653;28;20274;-68
2022/09/07 04:44:33;;;;;;;5.65;4.32;;;;;;;;;;5324654;28;20285;-68
2022/09/07 04:47:05;;;;;;;5.22;4.55;;;;;;;;;;5325380;28;20051;-69
2022/09/07 04:49:36;;;;;;;7.22;4.93;;;;;;;;;;5324149;28;20036;-68
2022/09/07 04:52:07;;;;;;;4.97;4.57;;;;;;;;;;5325467;28;20024;-68
2022/09/07 04:54:38;;;;;;;5.25;4.75;;;;;;;;;;5323918;28;20262;-68
2022/09/07 04:57:10;;;;;;;5.75;4.55;;;;;;;;;;5325181;28;20425;-68
2022/09/07 04:59:41;;;;;;;6.38;5.78;;;;;;;;;;5324425;28;20323;-70
2022/09/07 05:02:12;;;;;;;4.95;4.43;;;;;;;;;;5324393;28;20027;-68
2022/09/07 05:04:43;;;;;;;5.70;4.53;;;;;;;;;;5324485;28;20261;-68
2022/09/07 05:07:15;;;;;;;6.75;4.50;;;;;;;;;;5324711;28;20289;-68
2022/09/07 05:09:46;;;;;;;10.38;5.13;;;;;;;;;;5323436;28;20020;-68
2022/09/07 05:12:17;;;;;;;5.03;4.63;;;;;;;;;;5324856;28;20068;-68
2022/09/07 05:14:48;;;;;;;8.33;5.03;;;;;;;;;;5324347;28;20102;-68
2022/09/07 05:17:19;;;;;;;5.85;5.25;;;;;;;;;;5323945;28;20269;-68
2022/09/07 05:19:51;;;;;;;5.78;5.18;;;;;;;;;;5324075;28;20285;-68
2022/09/07 05:22:23;;;;;;;5.80;5.22;;;;;;;;;;5316274;28;20131;-68
2022/09/07 05:24:55;;;;;;;8.18;5.57;;;;;;;;;;5321133;28;20290;-69
2022/09/07 05:27:26;;;;;;;10.55;6.00;;;;;;;;;;5322021;28;20024;-70
2022/09/07 05:29:57;;;;;;;9.02;6.07;;;;;;;;;;5322857;28;20507;-72
2022/09/07 05:32:28;;;;;;;6.73;6.13;;;;;;;;;;5322918;28;20868;-69
2022/09/07 05:34:59;;;;;;;8.10;6.72;;;;;;;;;;5322826;28;20670;-70
2022/09/07 05:37:31;;;;;;;7.68;6.90;;;;;;;;;;5323332;28;20020;-71
2022/09/07 05:40:02;;;;;;;8.93;8.02;;;;;;;;;;5324498;28;20345;-70
2022/09/07 05:42:36;;;;;;;9.18;7.38;;;;;;;;;;5323962;28;20098;-70
2022/09/07 05:45:08;;;;;;;8.07;7.30;;;;;;;;;;5323471;28;20383;-70
2022/09/07 05:47:39;;;;;;;10.02;9.02;;;;;;;;;;5323546;28;20030;-70
2022/09/07 05:50:10;;;;;;;9.73;8.63;;;;;;;;;;5324017;28;20015;-70
2022/09/07 05:52:41;;;;;;;10.52;9.32;;;;;;;;;;5323044;28;20039;-69
2022/09/07 05:55:13;;;;;;;10.70;8.75;;;;;;;;;;5324093;28;20261;-71
2022/09/07 05:57:44;;;;;;;9.27;8.37;;;;;;;;;;5323367;28;20793;-70
2022/09/07 06:00:15;;;;;;;10.10;9.07;;;;;;;;;;5323204;28;20284;-70
2022/09/07 06:02:46;;;;;;;11.88;8.65;;;;;;;;;;5323396;28;20022;-69
2022/09/07 06:05:18;;;;;;;9.80;8.85;;;;;;;;;;5322820;28;20024;-69
2022/09/07 06:07:49;;;;;;;13.02;9.07;;;;;;;;;;5322755;28;20028;-70
2022/09/07 06:10:20;;;;;;;9.87;8.83;;;;;;;;;;5323290;28;20535;-70
2022/09/07 06:12:52;;;;;;;9.63;8.63;;;;;;;;;;5322191;28;20288;-71
2022/09/07 06:15:23;;;;;;;10.95;9.85;;;;;;;;;;5322575;28;20023;-70
2022/09/07 06:17:54;;;;;;;11.57;10.43;;;;;;;;;;5322991;28;20008;-70
2022/09/07 06:20:25;;;;;;;12.27;10.93;;;;;;;;;;5321522;28;20273;-70
2022/09/07 06:22:57;;;;;;;12.73;10.85;;;;;;;;;;5323059;28;20012;-69
2022/09/07 06:25:28;;;;;;;11.40;10.30;;;;;;;;;;5322569;28;20273;-70
2022/09/07 06:27:59;;;;;;;12.23;10.98;;;;;;;;;;5322884;28;20534;-70
2022/09/07 06:30:31;;;;;;;15.88;10.77;;;;;;;;;;5322779;28;20261;-70
2022/09/07 06:33:02;;;;;;;13.35;11.32;;;;;;;;;;5322292;28;20016;-70
2022/09/07 06:35:33;;;;;;;16.30;12.25;;;;;;;;;;5322326;28;20068;-70
2022/09/07 06:38:04;;;;;;;18.85;12.45;;;;;;;;;;5323508;28;20024;-69
2022/09/07 06:40:35;;;;;;;17.63;12.35;;;;;;;;;;5322051;28;20269;-70
2022/09/07 06:43:06;;;;;;;17.65;14.38;;;;;;;;;;5322854;28;20261;-70
2022/09/07 06:45:38;;;;;;;17.17;14.70;;;;;;;;;;5318441;28;20044;-69
2022/09/07 06:48:09;;;;;;;15.77;14.17;;;;;;;;;;5322767;28;20366;-69
2022/09/07 06:50:40;;;;;;;19.33;17.25;;;;;;;;;;5322426;28;20261;-70
2022/09/07 06:53:11;;;;;;;20.43;18.10;;;;;;;;;;5323045;28;20113;-70
2022/09/07 06:55:43;;;;;;;25.73;20.23;;;;;;;;;;5321987;28;20266;-69
2022/09/07 06:58:14;;;;;;;22.17;19.65;;;;;;;;;;5322523;28;20031;-70
2022/09/07 07:00:45;;;;;;;20.65;18.63;;;;;;;;;;5321826;28;20026;-67
2022/09/07 07:03:17;;;;;;;22.90;20.45;;;;;;;;;;5324201;28;20094;-67
2022/09/07 07:05:55;;;;;;;25.00;22.37;;;;;;;;;;5326406;28;20026;-68
2022/09/07 07:08:26;;;;;;;24.27;21.80;;;;;;;;;;5325498;28;20274;-68
2022/09/07 07:11:05;;;;;;;28.23;25.42;;;;;;;;;;5326908;28;20772;-68
2022/09/07 07:13:37;;;;;;;25.95;22.98;;;;;;;;;;5326367;28;20378;-68
2022/09/07 07:16:09;;;;;;;29.00;25.85;;;;;;;;;;5326016;28;21048;-68
2022/09/07 07:18:41;;;;;;;28.48;25.45;;;;;;;;;;5325644;28;20030;-68
2022/09/07 07:21:14;;;;;;;27.10;23.48;;;;;;;;;;5326789;28;20016;-68
2022/09/07 07:23:48;;;;;;;28.50;24.77;;;;;;;;;;5322055;28;20556;-67
2022/09/07 07:26:21;;;;;;;30.35;25.55;;;;;;;;;;5326772;28;20111;-69
2022/09/07 07:28:54;;;;;;;27.25;24.55;;;;;;;;;;5326113;28;20022;-68
2022/09/07 07:31:25;;;;;;;26.42;23.85;;;;;;;;;;5325430;28;20433;-69
2022/09/07 07:34:02;;;;;;;26.48;23.98;;;;;;;;;;5326146;28;20056;-68
2022/09/07 07:36:34;;;;;;;28.75;25.77;;;;;;;;;;5324868;28;20019;-69
2022/09/07 07:39:05;;;;;;;31.40;27.80;;;;;;;;;;5326767;28;20018;-69
2022/09/07 07:41:36;;;;;;;29.35;26.60;;;;;;;;;;5325531;28;20103;-69
2022/09/07 07:44:08;;;;;;;27.95;25.08;;;;;;;;;;5324988;28;20057;-69
2022/09/07 07:46:39;;;;;;;26.70;23.95;;;;;;;;;;5325534;28;20028;-69
2022/09/07 07:49:10;;;;;;;24.25;21.88;;;;;;;;;;5326208;28;20283;-69
2022/09/07 07:51:41;;;;;;;24.20;21.95;;;;;;;;;;5324744;28;20046;-69
2022/09/07 07:54:12;;;;;;;22.95;20.65;;;;;;;;;;5326307;28;20458;-69
2022/09/07 07:56:44;;;;;;;22.70;20.73;;;;;;;;;;5325036;28;20209;-69
2022/09/07 07:59:15;;;;;;;23.30;21.02;;;;;;;;;;5325255;28;20088;-69
2022/09/07 08:01:46;;;;;;;21.52;19.38;;;;;;;;;;5325430;28;20028;-69
2022/09/07 08:04:17;;;;;;;22.50;20.20;;;;;;;;;;5325861;28;20051;-69
2022/09/07 08:06:48;;;;;;;22.13;20.00;;;;;;;;;;5324445;28;20307;-68
2022/09/07 08:09:19;;;;;;;22.23;19.93;;;;;;;;;;5325893;28;20020;-69
2022/09/07 08:11:51;;;;;;;20.80;18.80;;;;;;;;;;5324267;28;20310;-69
2022/09/07 08:14:22;;;;;;;21.83;19.53;;;;;;;;;;5325707;28;20030;-69
2022/09/07 08:16:53;;;;;;;19.10;17.30;;;;;;;;;;5325282;28;20269;-69
2022/09/07 08:19:24;;;;;;;20.05;17.95;;;;;;;;;;5324824;28;20410;-69
2022/09/07 08:21:55;;;;;;;20.13;18.10;;;;;;;;;;5325095;28;20036;-69
2022/09/07 08:24:26;;;;;;;22.10;19.80;;;;;;;;;;5324961;28;20289;-69
2022/09/07 08:26:58;;;;;;;273.77;46.77;;;;;;;;;;5324904;28;20772;-69
2022/09/07 08:29:30;;;;;;;401.30;62.07;;;;;;;;;;5324886;28;20297;-69
2022/09/07 08:32:02;;;;;;;169.20;35.20;;;;;;;;;;5325797;28;20258;-70
2022/09/07 08:34:34;;;;;;;35.95;20.15;;;;;;;;;;5324536;28;20020;-67
2022/09/07 08:37:06;;;;;;;19.80;17.20;;;;;;;;;;5325597;27;20106;-68
2022/09/07 08:39:37;;;;;;;21.40;16.27;;;;;;;;;;5324008;28;20531;-69
2022/09/07 08:42:37;;;;;;;22.38;15.88;;;;;;;;;;5325429;28;20077;-69
2022/09/07 08:45:13;;;;;;;17.02;14.90;;;;;;;;;;5252387;28;20086;-69
2022/09/07 08:47:48;;;;;;;15.93;14.40;;;;;;;;;;5323813;27;20059;-69
2022/09/07 08:50:28;;;;;;;17.70;14.30;;;;;;;;;;5325598;28;20375;-68
2022/09/07 08:53:12;;;;;;;71.55;20.10;;;;;;;;;;5325241;28;20424;-69
2022/09/07 08:56:16;;;;;;;14.40;12.88;;;;;;;;;;5324049;28;20360;-69
2022/09/07 08:58:49;;;;;;;14.30;12.90;;;;;;;;;;5279102;28;20115;-69
2022/09/07 09:01:30;;;;;;;12.75;11.40;;;;;;;;;;5324432;28;20016;-69
2022/09/07 09:04:02;;;;;;;86.00;21.10;;;;;;;;;;5324920;28;20023;-69
2022/09/07 09:06:44;;;;;;;39.65;14.63;;;;;;;;;;5324359;28;20028;-69
2022/09/07 09:09:15;;;;;;;51.90;14.70;;;;;;;;;;5324143;28;20485;-69
2022/09/07 09:12:06;;;;;;;64.50;16.13;;;;;;;;;;5324004;28;20084;-69
2022/09/07 09:14:50;;;;;;;15.63;10.43;;;;;;;;;;5323764;28;20051;-69
2022/09/07 09:17:28;;;;;;;240.40;34.47;;;;;;;;;;5324499;28;20190;-69
2022/09/07 09:20:06;;;;;;;54.83;13.02;;;;;;;;;;5324781;28;20479;-69
2022/09/07 09:22:38;;;;;;;26.05;9.25;;;;;;;;;;5323480;28;20129;-70
2022/09/07 09:25:20;;;;;;;12.10;7.70;;;;;;;;;;5324458;28;20132;-71
2022/09/07 09:27:51;;;;;;;44.17;9.68;;;;;;;;;;5324121;27;20482;-70
2022/09/07 09:30:23;;;;;;;96.50;16.05;;;;;;;;;;5320132;28;20102;-70
2022/09/07 09:33:12;;;;;;;11.43;6.55;;;;;;;;;;5323950;28;20068;-70
2022/09/07 09:35:45;;;;;;;12.02;5.22;;;;;;;;;;5323634;28;20047;-70
2022/09/07 09:38:33;;;;;;;267.30;32.78;;;;;;;;;;5323585;28;20024;-70
2022/09/07 09:41:07;;;;;;;150.75;22.08;;;;;;;;;;5323987;28;20023;-69
2022/09/07 09:43:52;;;;;;;47.28;7.93;;;;;;;;;;5322563;28;20044;-69
2022/09/07 09:46:30;;;;;;;8.57;3.80;;;;;;;;;;5323609;28;20073;-69
2022/09/07 09:49:18;;;;;;;4.97;2.65;;;;;;;;;;5323898;28;20027;-70
2022/09/07 09:51:51;;;;;;;4.90;2.08;;;;;;;;;;5322716;28;20031;-70
2022/09/07 09:54:32;;;;;;;61.72;8.43;;;;;;;;;;5323847;28;20027;-69
2022/09/07 09:57:03;;;;;;;10.70;2.30;;;;;;;;;;5322933;28;20019;-70
2022/09/07 09:59:35;;;;;;;92.03;9.40;;;;;;;;;;5323125;28;20024;-70
2022/09/07 10:02:24;;;;;;;97.68;11.63;;;;;;;;;;5324203;28;20024;-70
2022/09/07 10:04:55;;;;;;;25.35;4.38;;;;;;;;;;5322536;28;20011;-69
2022/09/07 10:07:28;;;;;;;210.47;23.47;;;;;;;;;;5323242;28;20122;-70
2022/09/07 10:09:59;;;;;;;23.80;2.97;;;;;;;;;;5323750;28;20266;-69
2022/09/07 10:12:35;;;;;;;13.18;2.13;;;;;;;;;;5322584;28;20339;-70
2022/09/07 10:15:06;;;;;;;6.32;1.13;;;;;;;;;;5323534;28;20026;-70
2022/09/07 10:17:40;;;;;;;9.88;1.45;;;;;;;;;;5323202;28;20016;-70
2022/09/07 10:20:11;;;;;;;9.27;0.98;;;;;;;;;;5322688;28;20459;-70
2022/09/07 10:22:44;;;;;;;4.05;0.90;;;;;;;;;;5323091;28;20024;-70
2022/09/07 10:25:43;;;;;;;6.40;0.77;;;;;;;;;;5322774;28;20055;-70
2022/09/07 10:28:18;;;;;;;4.40;0.65;;;;;;;;;;5323588;28;20114;-69
2022/09/07 10:30:55;;;;;;;5.18;0.60;;;;;;;;;;5322967;28;20352;-70
2022/09/07 10:33:45;;;;;;;4.80;0.60;;;;;;;;;;5322318;28;20020;-70
2022/09/07 10:36:34;;;;;;;7.47;0.77;;;;;;;;;;5323658;28;20372;-70
2022/09/07 10:39:07;;;;;;;5.93;0.82;;;;;;;;;;5327296;28;20016;-70
2022/09/07 10:41:53;;;;;;;5.03;0.50;;;;;;;;;;5327175;28;20016;-70
2022/09/07 10:44:37;;;;;;;14.52;1.75;;;;;;;;;;5319147;28;20176;-70
2022/09/07 10:47:27;;;;;;;4.65;0.75;;;;;;;;;;5311284;28;20032;-70
2022/09/07 10:50:04;;;;;;;5.80;0.80;;;;;;;;;;5325331;28;20031;-70
2022/09/07 10:52:41;;;;;;;4.65;0.80;;;;;;;;;;5326960;28;20024;-71
2022/09/07 10:55:14;;;;;;;8.15;0.60;;;;;;;;;;5325549;28;20095;-71
2022/09/07 10:57:54;;;;;;;11.77;0.73;;;;;;;;;;5326838;28;20114;-70
2022/09/07 11:00:26;;;;;;;7.70;0.60;;;;;;;;;;5326232;28;20030;-71
2022/09/07 11:03:09;;;;;;;8.63;1.00;;;;;;;;;;5327477;28;20019;-70
2022/09/07 11:05:46;;;;;;;6.57;0.60;;;;;;;;;;5326869;28;20031;-71
2022/09/07 11:08:23;;;;;;;3.60;0.50;;;;;;;;;;5326749;28;20115;-70
2022/09/07 11:11:10;;;;;;;5.13;0.47;;;;;;;;;;5327393;28;20534;-70
2022/09/07 11:13:42;;;;;;;4.28;0.60;;;;;;;;;;5326905;28;20423;-70
2022/09/07 11:16:15;;;;;;;5.57;0.57;;;;;;;;;;5326506;28;20028;-69
2022/09/07 11:18:46;;;;;;;12.27;1.00;;;;;;;;;;5326585;28;20027;-69
2022/09/07 11:21:21;;;;;;;30.27;2.20;;;;;;;;;;5327684;28;20023;-70
2022/09/07 11:23:54;;;;;;;6.88;0.63;;;;;;;;;;5326309;28;20466;-71
2022/09/07 11:26:34;;;;;;;3.78;0.88;;;;;;;;;;5326450;28;20024;-70
2022/09/07 11:29:11;;;;;;;11.23;0.80;;;;;;;;;;5326454;28;20094;-69
2022/09/07 11:31:57;;;;;;;8.13;0.80;;;;;;;;;;5326613;28;20107;-70
2022/09/07 11:34:28;;;;;;;11.52;1.65;;;;;;;;;;5326603;28;20012;-70
2022/09/07 11:37:01;;;;;;;6.68;0.52;;;;;;;;;;5326389;28;20015;-70
2022/09/07 11:39:50;;;;;;;5.55;0.65;;;;;;;;;;5326238;28;20012;-70
2022/09/07 11:42:32;;;;;;;3.38;0.80;;;;;;;;;;5327074;28;20024;-71
2022/09/07 11:45:05;;;;;;;3.65;0.60;;;;;;;;;;5326762;28;20047;-71
2022/09/07 11:47:41;;;;;;;2.42;0.50;;;;;;;;;;5326209;28;20027;-70
2022/09/07 11:50:21;;;;;;;4.43;1.00;;;;;;;;;;5325446;28;20166;-70
2022/09/07 11:53:12;;;;;;;11.25;0.73;;;;;;;;;;5326020;28;20031;-70
2022/09/07 11:55:45;;;;;;;5.00;0.95;;;;;;;;;;5318243;28;20027;-70
2022/09/07 11:58:35;;;;;;;3.10;0.60;;;;;;;;;;5325709;28;20075;-71
2022/09/07 12:01:25;;;;;;;3.90;0.50;;;;;;;;;;5326523;28;20024;-70
2022/09/07 12:04:15;;;;;;;2.83;0.50;;;;;;;;;;5325693;28;20022;-70
2022/09/07 12:06:52;;;;;;;5.53;0.70;;;;;;;;;;5325741;28;20031;-70
2022/09/07 12:09:26;;;;;;;4.05;0.93;;;;;;;;;;5326290;28;20055;-70
2022/09/07 12:12:05;;;;;;;1.70;0.40;;;;;;;;;;5325573;28;20062;-70
2022/09/07 12:14:36;;;;;;;3.95;0.40;;;;;;;;;;5325651;28;20023;-69
2022/09/07 12:17:10;;;;;;;4.30;0.70;;;;;;;;;;5315089;28;20471;-71
2022/09/07 12:19:41;;;;;;;2.85;0.50;;;;;;;;;;5309716;28;20108;-70
2022/09/07 12:22:17;;;;;;;3.40;0.50;;;;;;;;;;5319709;27;20094;-70
2022/09/07 12:24:52;;;;;;;5.03;0.50;;;;;;;;;;5345301;27;20268;-71
2022/09/07 12:27:24;;;;;;;7.03;0.80;;;;;;;;;;5345924;27;20038;-69
2022/09/07 12:30:01;;;;;;;2.28;0.45;;;;;;;;;;5346017;27;20011;-69
2022/09/07 12:32:47;;;;;;;2.30;0.50;;;;;;;;;;5345276;27;20071;-69
2022/09/07 12:35:27;;;;;;;4.55;0.40;;;;;;;;;;5346319;27;20019;-70
2022/09/07 12:37:59;;;;;;;1.23;0.30;;;;;;;;;;5346116;27;20020;-71
2022/09/07 12:40:32;;;;;;;2.35;0.47;;;;;;;;;;5345005;27;20072;-72
2022/09/07 12:43:12;;;;;;;2.40;0.40;;;;;;;;;;5346086;27;20054;-71
2022/09/07 12:45:50;;;;;;;5.40;0.70;;;;;;;;;;5346031;27;20047;-71
2022/09/07 12:48:21;;;;;;;1.55;0.30;;;;;;;;;;5346616;27;20562;-71
2022/09/07 12:50:58;;;;;;;2.30;0.38;;;;;;;;;;5330676;27;20053;-72
2022/09/07 12:53:39;;;;;;;1.70;0.50;;;;;;;;;;5324053;28;20038;-71
2022/09/07 12:56:18;;;;;;;1.95;0.50;;;;;;;;;;5324810;28;20022;-73
2022/09/07 12:59:08;;;;;;;2.33;0.40;;;;;;;;;;5324615;28;20481;-73
2022/09/07 13:01:59;;;;;;;3.50;0.32;;;;;;;;;;5323142;28;20012;-72
2022/09/07 13:04:36;;;;;;;3.40;0.40;;;;;;;;;;5324613;28;20092;-72
2022/09/07 13:07:13;;;;;;;2.08;0.40;;;;;;;;;;5324399;28;20043;-73
2022/09/07 13:09:53;;;;;;;6.63;0.93;;;;;;;;;;5324627;28;20022;-72
2022/09/07 13:12:32;;;;;;;2.30;0.40;;;;;;;;;;5325013;28;20459;-73
2022/09/07 13:15:04;;;;;;;3.00;0.35;;;;;;;;;;5324303;28;20012;-73
2022/09/07 13:17:37;;;;;;;3.65;0.50;;;;;;;;;;5324254;28;20011;-73
2022/09/07 13:20:08;;;;;;;3.72;0.40;;;;;;;;;;5324816;28;20458;-72
2022/09/07 13:22:40;;;;;;;8.23;0.50;;;;;;;;;;5323529;28;20095;-72
2022/09/07 13:25:12;;;;;;;1.92;0.30;;;;;;;;;;5324982;27;20099;-72
2022/09/07 13:27:49;;;;;;;2.55;0.30;;;;;;;;;;5324054;28;20114;-71
2022/09/07 13:30:43;;;;;;;4.07;0.30;;;;;;;;;;5323931;27;20081;-71
2022/09/07 13:33:23;;;;;;;4.07;0.50;;;;;;;;;;5324594;28;20102;-72
2022/09/07 13:35:55;;;;;;;5.75;0.35;;;;;;;;;;5323326;28;20084;-72
2022/09/07 13:38:28;;;;;;;1.25;0.20;;;;;;;;;;5323859;28;20020;-72
2022/09/07 13:41:05;;;;;;;2.28;0.30;;;;;;;;;;5324561;28;20095;-72
2022/09/07 13:43:36;;;;;;;3.38;0.30;;;;;;;;;;5322650;28;20052;-72
2022/09/07 13:46:14;;;;;;;1.63;0.30;;;;;;;;;;5324330;28;20023;-72
2022/09/07 13:48:51;;;;;;;5.10;0.30;;;;;;;;;;5323431;28;20053;-71
2022/09/07 13:51:27;;;;;;;4.47;0.40;;;;;;;;;;5323714;28;20027;-72
2022/09/07 13:54:05;;;;;;;2.25;0.20;;;;;;;;;;5324309;28;20351;-72
2022/09/07 13:56:54;;;;;;;4.68;0.30;;;;;;;;;;5322723;28;20024;-72
2022/09/07 13:59:27;;;;;;;3.70;0.30;;;;;;;;;;5323603;28;20030;-72
2022/09/07 14:01:58;;;;;;;1.77;0.30;;;;;;;;;;5324067;28;20022;-73
2022/09/07 14:04:36;;;;;;;6.70;0.40;;;;;;;;;;5322693;28;20019;-72
2022/09/07 14:07:19;;;;;;;3.10;0.30;;;;;;;;;;5323836;28;20410;-71
2022/09/07 14:10:08;;;;;;;1.52;0.30;;;;;;;;;;5323225;28;20390;-71
2022/09/07 14:12:41;;;;;;;1.50;0.20;;;;;;;;;;5322911;28;20030;-70
2022/09/07 14:15:21;;;;;;;3.38;0.22;;;;;;;;;;5323967;28;20024;-71
2022/09/07 14:18:00;;;;;;;2.53;0.35;;;;;;;;;;5322515;28;20394;-72
2022/09/07 14:20:36;;;;;;;3.30;0.57;;;;;;;;;;5313755;28;20024;-70
2022/09/07 14:23:28;;;;;;;4.32;0.30;;;;;;;;;;5318953;28;20024;-70
2022/09/07 14:26:06;;;;;;;3.55;0.20;;;;;;;;;;5309209;28;20521;-70
2022/09/07 14:28:38;;;;;;;6.50;0.40;;;;;;;;;;5323271;28;20490;-70
2022/09/07 14:31:13;;;;;;;2.65;0.38;;;;;;;;;;5323646;28;20012;-70
2022/09/07 14:33:57;;;;;;;1.83;0.45;;;;;;;;;;5322569;28;20345;-70
2022/09/07 14:36:30;;;;;;;2.67;0.30;;;;;;;;;;5322474;28;20450;-69
2022/09/07 14:39:04;;;;;;;2.70;0.40;;;;;;;;;;5322916;28;20068;-70
2022/09/07 14:41:37;;;;;;;3.53;0.30;;;;;;;;;;5323219;28;20026;-70
2022/09/07 14:44:27;;;;;;;4.20;0.30;;;;;;;;;;5323652;28;20380;-70
2022/09/07 14:47:00;;;;;;;2.30;0.25;;;;;;;;;;5322613;28;20039;-70
2022/09/07 14:49:32;;;;;;;3.20;0.30;;;;;;;;;;5323024;28;20019;-70
2022/09/07 14:52:03;;;;;;;2.17;0.30;;;;;;;;;;5323363;28;20020;-70
2022/09/07 14:54:34;;;;;;;3.63;0.30;;;;;;;;;;5321849;28;20019;-70
2022/09/07 14:57:24;;;;;;;2.25;0.30;;;;;;;;;;5323172;28;20364;-70
2022/09/07 14:59:56;;;;;;;2.42;0.45;;;;;;;;;;5322514;28;20365;-70
2022/09/07 15:02:35;;;;;;;1.55;0.22;;;;;;;;;;5322903;28;20020;-70
2022/09/07 15:05:17;;;;;;;6.40;0.40;;;;;;;;;;5323432;28;20019;-70
2022/09/07 15:07:49;;;;;;;5.53;0.50;;;;;;;;;;5321573;28;20027;-71
2022/09/07 15:10:21;;;;;;;4.53;0.30;;;;;;;;;;5323493;28;20054;-69
2022/09/07 15:12:56;;;;;;;3.58;0.30;;;;;;;;;;5322594;28;20486;-70
2022/09/07 15:15:29;;;;;;;4.10;0.30;;;;;;;;;;5321838;28;20022;-71
2022/09/07 15:18:02;;;;;;;3.80;0.40;;;;;;;;;;5323174;28;20015;-70
2022/09/07 15:20:33;;;;;;;5.30;0.38;;;;;;;;;;5321774;28;20019;-70
2022/09/07 15:23:08;;;;;;;7.67;0.40;;;;;;;;;;5323340;28;20028;-70